Time;durP1;ratioP1;P1;durP2;ratioP2;P2;SDS_P1;SDS_P2;PMS_P1;PMS_P2;Temp;Humidity;BMP_temperature;BMP_pressure;BME280_temperature;BME280_humidity;BME280_pressure;Samples;Min_cycle;Max_cycle;Signal;HPM_P1;HPM_P2
2022/07/01 00:01:55;;;;;;;10.50;8.20;;;;;;;17.74;75.95;97250.52;109926;1248;59696;-68
2022/07/01 00:04:26;;;;;;;8.90;7.60;;;;;;;17.76;75.15;97250.40;110194;1247;59695;-67
2022/07/01 00:07:16;;;;;;;8.80;7.90;;;;;;;17.77;73.73;97250.11;109992;1249;70260;-68
2022/07/01 00:09:46;;;;;;;9.40;8.10;;;;;;;17.72;75.77;97257.47;109837;1250;67761;-70
2022/07/01 00:12:16;;;;;;;9.10;7.10;;;;;;;17.65;75.19;97258.59;110162;1248;69446;-65
2022/07/01 00:14:46;;;;;;;;;;;;;;;17.62;74.49;97258.39;110185;1247;59774;-68
2022/07/01 00:17:16;;;;;;;8.70;7.90;;;;;;;17.57;76.29;97260.48;110156;1248;59716;-70
2022/07/01 00:19:48;;;;;;;10.30;7.80;;;;;;;17.50;76.04;97261.73;110181;1247;70587;-74
2022/07/01 00:22:17;;;;;;;8.80;7.10;;;;;;;17.45;76.65;97264.98;110172;1247;68537;-66
2022/07/01 00:24:48;;;;;;;8.90;6.70;;;;;;;17.43;75.79;97261.90;110021;1250;69432;-66
2022/07/01 00:27:18;;;;;;;9.10;7.70;;;;;;;17.41;76.41;97261.62;110164;1248;58932;-66
2022/07/01 00:29:49;;;;;;;8.10;7.30;;;;;;;17.37;77.13;97260.08;110185;1248;59683;-68
2022/07/01 00:32:18;;;;;;;;;;;;;;;17.34;77.00;97259.02;110160;1250;71622;-66
2022/07/01 00:34:47;;;;;;;8.80;7.40;;;;;;;17.30;77.14;97261.42;110149;1248;67012;-71
2022/07/01 00:37:17;;;;;;;8.20;7.00;;;;;;;17.29;77.38;97257.17;110140;1248;69222;-67
2022/07/01 00:39:47;;;;;;;8.70;7.10;;;;;;;17.27;77.40;97255.27;110179;1248;59680;-64
2022/07/01 00:42:17;;;;;;;7.70;6.60;;;;;;;17.25;76.30;97251.41;110163;1248;59691;-66
2022/07/01 00:44:47;;;;;;;7.80;7.00;;;;;;;17.23;76.88;97253.33;109903;1250;71712;-67
2022/07/01 00:47:17;;;;;;;8.10;7.30;;;;;;;17.24;75.30;97252.56;110204;1247;69745;-65
2022/07/01 00:49:47;;;;;;;10.00;8.30;;;;;;;17.27;76.79;97248.87;110158;1247;68880;-68
2022/07/01 00:52:16;;;;;;;7.80;6.80;;;;;;;17.29;77.35;97249.58;109838;1247;59676;-65
2022/07/01 00:54:46;;;;;;;10.10;7.80;;;;;;;17.30;77.68;97247.67;109946;1251;59762;-67
2022/07/01 00:57:15;;;;;;;9.40;8.20;;;;;;;17.31;78.06;97243.95;109924;1248;71520;-67
2022/07/01 00:59:46;;;;;;;10.20;9.10;;;;;;;17.33;78.05;97248.17;109983;1250;67892;-66
2022/07/01 01:02:15;;;;;;;10.20;8.30;;;;;;;17.34;77.09;97247.55;109943;1251;68488;-70
2022/07/01 01:04:45;;;;;;;9.50;7.60;;;;;;;17.36;77.82;97247.49;110123;1250;59743;-65
2022/07/01 01:07:15;;;;;;;9.80;8.40;;;;;;;17.37;76.55;97243.02;109838;1247;59677;-65
2022/07/01 01:09:44;;;;;;;8.60;7.70;;;;;;;17.39;76.89;97238.04;110165;1248;71569;-67
2022/07/01 01:12:15;;;;;;;10.90;8.70;;;;;;;17.43;77.11;97237.92;110034;1248;68671;-66
2022/07/01 01:14:47;;;;;;;9.70;8.70;;;;;;;17.46;76.18;97240.41;109935;1251;68644;-67
2022/07/01 01:17:19;;;;;;;8.40;7.10;;;;;;;17.49;75.83;97241.88;110166;1247;59764;-70
2022/07/01 01:19:51;;;;;;;7.60;6.80;;;;;;;17.49;74.98;97240.42;110219;1247;60078;-67
2022/07/01 01:22:21;;;;;;;8.60;7.60;;;;;;;17.49;74.61;97237.52;110169;1248;71692;-68
2022/07/01 01:24:51;;;;;;;8.50;7.60;;;;;;;17.47;74.11;97237.70;109964;1249;67773;-65
2022/07/01 01:27:23;;;;;;;8.80;7.70;;;;;;;17.45;74.00;97235.29;110212;1247;69797;-65
2022/07/01 01:29:53;;;;;;;7.80;7.00;;;;;;;17.41;73.83;97237.45;110124;1247;59750;-66
2022/07/01 01:32:23;;;;;;;9.50;8.50;;;;;;;17.36;74.10;97244.88;110217;1248;59717;-65
2022/07/01 01:34:53;;;;;;;9.00;7.90;;;;;;;17.29;74.87;97245.13;110146;1248;69830;-65
2022/07/01 01:37:23;;;;;;;8.20;6.80;;;;;;;17.26;74.45;97253.59;110139;1247;68428;-67
2022/07/01 01:39:53;;;;;;;9.40;7.70;;;;;;;17.21;76.07;97253.52;110137;1250;69415;-65
2022/07/01 01:42:24;;;;;;;10.30;8.30;;;;;;;17.19;78.10;97253.48;110182;1248;59709;-67
2022/07/01 01:44:54;;;;;;;9.30;7.60;;;;;;;17.18;77.86;97257.77;110238;1247;59633;-65
2022/07/01 01:47:25;;;;;;;7.60;6.80;;;;;;;17.19;77.50;97257.48;110028;1251;71527;-66
2022/07/01 01:49:55;;;;;;;10.20;7.80;;;;;;;17.20;77.11;97259.64;110116;1247;68361;-70
2022/07/01 01:52:25;;;;;;;9.20;7.70;;;;;;;17.22;77.67;97263.17;110122;1250;69418;-71
2022/07/01 01:54:54;;;;;;;8.70;7.50;;;;;;;17.23;77.84;97261.48;110157;1247;59735;-75
2022/07/01 01:57:23;;;;;;;7.90;7.00;;;;;;;17.25;77.82;97261.48;110154;1250;59608;-69
2022/07/01 01:59:54;;;;;;;9.80;8.20;;;;;;;17.26;75.89;97259.60;110210;1247;70638;-67
2022/07/01 02:02:24;;;;;;;8.20;7.10;;;;;;;17.23;77.18;97264.24;110190;1247;66844;-72
2022/07/01 02:04:55;;;;;;;9.50;7.80;;;;;;;17.23;76.09;97269.61;110173;1247;69419;-74
2022/07/01 02:07:26;;;;;;;8.50;7.20;;;;;;;17.22;77.67;97269.64;110183;1247;59702;-67
2022/07/01 02:09:57;;;;;;;9.20;7.00;;;;;;;17.23;77.64;97273.44;110178;1250;59687;-65
2022/07/01 02:12:27;;;;;;;9.00;6.70;;;;;;;17.23;77.64;97273.61;110126;1249;71536;-70
2022/07/01 02:14:58;;;;;;;7.90;6.90;;;;;;;17.23;75.61;97274.63;109972;1249;67680;-70
2022/07/01 02:17:29;;;;;;;9.70;8.20;;;;;;;17.23;76.42;97275.73;110223;1247;68612;-70
2022/07/01 02:19:58;;;;;;;;;;;;;;;17.22;77.29;97281.96;109948;1248;59639;-73
2022/07/01 02:22:28;;;;;;;8.40;7.40;;;;;;;17.20;77.81;97283.97;110106;1250;59699;-69
2022/07/01 02:25:00;;;;;;;8.70;7.50;;;;;;;17.19;77.46;97282.88;110011;1251;71420;-71
2022/07/01 02:27:30;;;;;;;8.80;7.60;;;;;;;17.15;78.15;97285.39;110029;1247;67713;-73
2022/07/01 02:30:00;;;;;;;8.40;7.40;;;;;;;17.14;77.45;97285.28;110371;1248;68224;-76
2022/07/01 02:32:31;;;;;;;9.80;7.80;;;;;;;17.13;78.71;97289.46;110221;1247;59732;-68
2022/07/01 02:35:01;;;;;;;8.40;7.40;;;;;;;17.13;78.51;97293.69;110160;1247;59683;-65
2022/07/01 02:37:33;;;;;;;10.00;8.10;;;;;;;17.13;77.94;97293.83;110177;1247;71416;-71
2022/07/01 02:40:03;;;;;;;9.70;8.40;;;;;;;17.13;78.40;97290.98;109995;1251;67832;-68
2022/07/01 02:42:36;;;;;;;8.90;7.60;;;;;;;17.14;78.07;97292.17;110176;1247;68465;-74
2022/07/01 02:45:08;;;;;;;8.50;7.60;;;;;;;17.16;78.34;97288.64;110179;1247;59726;-66
2022/07/01 02:47:40;;;;;;;10.20;8.70;;;;;;;17.17;78.41;97293.95;110020;1247;59688;-74
2022/07/01 02:50:12;;;;;;;7.70;6.90;;;;;;;17.16;78.41;97298.94;110044;1247;71500;-74
2022/07/01 02:52:46;;;;;;;8.80;7.90;;;;;;;17.17;78.40;97296.10;110182;1247;67772;-73
2022/07/01 02:55:16;;;;;;;9.40;7.60;;;;;;;17.15;78.65;97293.81;109913;1250;69139;-68
2022/07/01 02:57:51;;;;;;;10.30;8.40;;;;;;;17.14;77.84;97289.00;109885;1247;59728;-64
2022/07/01 03:00:22;;;;;;;9.80;8.00;;;;;;;17.13;76.11;97292.04;110025;1250;59688;-70
2022/07/01 03:02:52;;;;;;;7.90;6.80;;;;;;;17.10;76.13;97291.73;110215;1247;71366;-67
2022/07/01 03:05:23;;;;;;;11.10;9.00;;;;;;;17.07;77.12;97292.01;109853;1250;67822;-71
2022/07/01 03:07:52;;;;;;;8.80;7.50;;;;;;;17.04;78.30;97301.26;109939;1247;69436;-75
2022/07/01 03:10:23;;;;;;;8.20;7.30;;;;;;;17.00;78.40;97297.14;110081;1248;59802;-75
2022/07/01 03:12:54;;;;;;;8.30;7.20;;;;;;;16.97;78.19;97291.44;110219;1247;59596;-73
2022/07/01 03:15:24;;;;;;;7.20;5.90;;;;;;;16.95;77.33;97291.22;110141;1247;70589;-68
2022/07/01 03:17:53;;;;;;;;;;;;;;;16.96;77.49;97294.70;109951;1250;68513;-67
2022/07/01 03:20:23;;;;;;;7.30;6.50;;;;;;;16.95;77.14;97301.09;110170;1248;68650;-74
2022/07/01 03:22:52;;;;;;;9.20;7.10;;;;;;;16.96;77.84;97300.45;110127;1248;59752;-76
2022/07/01 03:25:22;;;;;;;9.50;7.20;;;;;;;16.97;78.72;97303.73;110132;1249;59700;-74
2022/07/01 03:27:51;;;;;;;8.50;7.60;;;;;;;16.98;79.05;97303.23;109856;1251;70450;-78
2022/07/01 03:30:21;;;;;;;9.70;8.00;;;;;;;16.99;79.68;97305.45;110066;1247;66889;-68
2022/07/01 03:32:51;;;;;;;7.40;6.50;;;;;;;17.02;79.30;97310.27;110042;1250;68710;-65
2022/07/01 03:35:39;;;;;;;13.20;8.40;;;;;;;17.04;78.93;97311.04;110091;1248;59702;-67
2022/07/01 03:38:09;;;;;;;9.00;8.00;;;;;;;17.07;78.44;97306.97;110166;1248;59708;-63
2022/07/01 03:40:40;;;;;;;9.50;7.50;;;;;;;17.11;77.94;97308.31;110049;1247;70726;-65
2022/07/01 03:43:11;;;;;;;8.00;6.90;;;;;;;17.17;78.38;97305.54;109753;1250;67851;-65
2022/07/01 03:45:46;;;;;;;8.80;7.60;;;;;;;17.24;78.19;97307.34;109727;1250;68656;-70
2022/07/01 03:48:17;;;;;;;9.10;7.90;;;;;;;17.28;78.23;97315.19;109758;1250;59776;-67
2022/07/01 03:50:47;;;;;;;9.00;7.60;;;;;;;17.32;77.67;97316.37;110191;1249;59689;-64
2022/07/01 03:56:05;;;;;;;12.20;8.90;;;;;;;17.37;77.20;97321.90;110003;1250;69107;-71
2022/07/01 03:58:34;;;;;;;11.00;8.70;;;;;;;17.35;76.58;97322.63;109642;1250;68626;-74
2022/07/01 04:01:04;;;;;;;10.20;9.20;;;;;;;17.29;76.33;97321.06;110016;1248;59745;-71
2022/07/01 04:03:33;;;;;;;;;;;;;;;17.20;77.47;97318.96;109938;1250;59670;-70
2022/07/01 04:06:03;;;;;;;10.80;9.10;;;;;;;17.17;76.76;97319.30;110317;1247;70373;-66
2022/07/01 04:08:33;;;;;;;10.90;7.50;;;;;;;17.10;77.33;97320.02;110004;1248;68591;-66
2022/07/01 04:11:04;;;;;;;10.30;8.20;;;;;;;17.10;78.50;97327.48;109712;1251;70051;-66
2022/07/01 04:13:35;;;;;;;8.30;7.30;;;;;;;17.14;78.48;97332.69;109841;1251;59701;-67
2022/07/01 04:16:06;;;;;;;8.40;7.40;;;;;;;17.19;79.02;97339.89;110220;1247;59679;-68
2022/07/01 04:18:35;;;;;;;;;;;;;;;17.27;79.17;97334.48;110267;1247;71709;-65
2022/07/01 04:23:52;;;;;;;8.00;6.40;;;;;;;17.47;76.44;97325.58;110133;1247;69074;-65
2022/07/01 04:26:21;;;;;;;10.70;7.00;;;;;;;17.57;76.17;97327.04;110156;1245;59742;-74
2022/07/01 04:29:07;;;;;;;12.90;9.30;;;;;;;17.67;77.02;97330.80;109972;1248;59668;-75
2022/07/01 04:31:37;;;;;;;10.60;8.90;;;;;;;17.76;77.88;97331.80;110173;1247;70656;-75
2022/07/01 04:34:08;;;;;;;12.00;8.50;;;;;;;17.87;77.69;97329.76;109967;1250;68627;-70
2022/07/01 04:36:38;;;;;;;9.20;7.90;;;;;;;17.98;75.95;97329.50;109871;1250;69378;-73
2022/07/01 04:39:08;;;;;;;9.50;7.20;;;;;;;18.09;75.04;97329.48;110021;1247;59691;-73
2022/07/01 04:44:27;;;;;;;9.20;7.80;;;;;;;18.23;75.07;97326.34;109872;1248;70564;-72
2022/07/01 04:46:56;;;;;;;11.90;8.90;;;;;;;18.32;74.77;97327.54;110187;1247;67617;-72
2022/07/01 04:49:26;;;;;;;;;;;;;;;18.42;75.19;97328.78;110175;1247;68579;-68
2022/07/01 04:51:56;;;;;;;11.70;8.90;;;;;;;18.48;75.14;97332.21;110005;1249;59745;-65
2022/07/01 04:54:25;;;;;;;12.40;8.50;;;;;;;18.55;74.60;97331.92;110212;1247;59704;-73
2022/07/01 04:56:55;;;;;;;9.40;7.30;;;;;;;18.65;74.22;97331.05;109912;1250;71538;-65
2022/07/01 04:59:24;;;;;;;9.40;7.00;;;;;;;18.76;74.44;97334.66;109932;1248;68523;-76
2022/07/01 05:01:53;;;;;;;9.40;7.70;;;;;;;18.88;74.10;97337.98;110059;1249;69535;-71
2022/07/01 05:04:23;;;;;;;7.60;6.80;;;;;;;18.99;73.97;97338.69;109910;1247;59790;-65
2022/07/01 05:06:52;;;;;;;8.50;7.50;;;;;;;19.09;73.58;97337.17;109930;1249;59763;-72
2022/07/01 05:09:22;;;;;;;8.10;7.10;;;;;;;19.17;73.30;97341.55;110029;1247;71512;-69
2022/07/01 05:11:55;;;;;;;10.60;8.10;;;;;;;19.29;72.87;97351.20;110073;1247;67822;-72
2022/07/01 05:14:24;;;;;;;11.30;8.30;;;;;;;19.45;71.88;97357.01;110070;1247;68978;-68
2022/07/01 05:16:54;;;;;;;8.70;6.90;;;;;;;19.59;71.66;97360.83;110039;1249;59794;-65
2022/07/01 05:22:11;;;;;;;14.60;9.80;;;;;;;19.75;71.43;97365.30;110042;1247;70782;-65
2022/07/01 05:24:41;;;;;;;12.40;9.70;;;;;;;19.60;71.08;97368.84;110012;1248;67923;-64
2022/07/01 05:27:11;;;;;;;;;;;;;;;19.45;71.20;97371.94;110010;1248;69252;-69
2022/07/01 05:29:40;;;;;;;13.80;9.50;;;;;;;19.39;71.43;97375.45;109979;1250;59733;-65
2022/07/01 05:32:11;;;;;;;12.50;9.50;;;;;;;19.43;71.30;97380.08;110001;1247;59689;-75
2022/07/01 05:34:42;;;;;;;12.70;9.20;;;;;;;19.47;71.42;97381.95;109945;1250;70649;-76
2022/07/01 05:37:11;;;;;;;13.80;9.40;;;;;;;19.52;71.74;97380.25;110152;1247;67922;-72
2022/07/01 05:39:40;;;;;;;9.60;8.30;;;;;;;19.63;71.44;97379.33;110256;1247;67680;-75
2022/07/01 05:42:16;;;;;;;8.90;8.00;;;;;;;19.82;71.37;97382.10;110166;1247;59693;-78
2022/07/01 05:44:45;;;;;;;13.90;9.50;;;;;;;20.08;69.85;97381.60;110177;1247;59677;-75
2022/07/01 05:47:16;;;;;;;13.30;9.50;;;;;;;20.26;68.29;97381.45;110202;1247;71569;-72
2022/07/01 05:49:45;;;;;;;;;;;;;;;20.45;67.08;97377.37;110205;1248;68398;-71
2022/07/01 05:52:14;;;;;;;10.60;7.40;;;;;;;20.68;66.67;97377.42;110198;1247;69419;-75
2022/07/01 05:54:43;;;;;;;9.60;7.70;;;;;;;20.97;66.12;97376.86;110260;1247;59666;-72
2022/07/01 05:57:12;;;;;;;10.40;8.40;;;;;;;21.27;64.37;97378.72;110181;1247;59676;-72
2022/07/01 05:59:41;;;;;;;10.90;7.00;;;;;;;21.59;64.42;97379.00;110146;1247;71533;-69
2022/07/01 06:02:10;;;;;;;6.30;5.70;;;;;;;21.85;60.78;97373.10;110171;1247;68004;-68
2022/07/01 06:04:39;;;;;;;7.40;6.20;;;;;;;22.03;58.41;97368.11;110144;1248;69212;-72
2022/07/01 06:07:13;;;;;;;9.00;6.80;;;;;;;22.20;58.64;97365.73;110148;1247;59822;-71
2022/07/01 06:09:42;;;;;;;8.00;6.90;;;;;;;22.40;58.31;97366.52;110155;1247;59715;-72
2022/07/01 06:12:10;;;;;;;6.40;5.80;;;;;;;22.65;59.46;97363.36;109986;1248;71601;-71
2022/07/01 06:14:40;;;;;;;6.70;5.90;;;;;;;22.91;57.53;97362.85;109912;1250;67694;-71
2022/07/01 06:17:09;;;;;;;8.20;5.40;;;;;;;23.07;56.21;97360.34;110147;1250;69513;-72
2022/07/01 06:19:39;;;;;;;5.60;5.00;;;;;;;23.26;57.81;97359.04;110151;1247;59705;-70
2022/07/01 06:22:07;;;;;;;;;;;;;;;23.39;54.20;97356.83;109912;1250;59746;-72
2022/07/01 06:24:36;;;;;;;7.10;6.20;;;;;;;23.64;54.05;97360.14;110144;1247;71304;-71
2022/07/01 06:27:06;;;;;;;6.20;5.50;;;;;;;23.75;53.37;97356.26;110225;1247;68637;-70
2022/07/01 06:29:35;;;;;;;6.40;5.60;;;;;;;23.87;53.17;97358.91;109881;1249;69237;-67
2022/07/01 06:32:06;;;;;;;7.20;6.40;;;;;;;24.12;53.24;97353.77;109988;1248;60123;-68
2022/07/01 06:34:35;;;;;;;5.80;5.20;;;;;;;24.33;52.78;97353.53;110211;1247;59651;-67
2022/07/01 06:37:05;;;;;;;6.60;5.80;;;;;;;24.59;53.18;97348.91;110159;1247;70727;-70
2022/07/01 06:39:34;;;;;;;;;;;;;;;24.85;53.11;97351.48;110205;1247;68040;-70
2022/07/01 06:42:04;;;;;;;;;;;;;;;25.20;51.23;97350.65;110165;1247;69245;-72
2022/07/01 06:44:33;;;;;;;;;;;;;;;25.60;50.09;97349.13;110176;1248;59828;-69
2022/07/01 06:47:03;;;;;;;6.60;6.00;;;;;;;25.97;48.64;97351.10;110150;1247;59624;-71
2022/07/01 06:49:31;;;;;;;;;;;;;;;26.49;49.41;97350.16;110062;1247;70859;-70
2022/07/01 06:52:01;;;;;;;9.30;6.20;;;;;;;26.94;45.96;97353.10;110114;1247;68700;-72
2022/07/01 06:54:30;;;;;;;;;;;;;;;27.48;45.38;97352.90;110200;1247;68467;-67
2022/07/01 06:56:59;;;;;;;8.20;6.20;;;;;;;27.82;44.78;97355.16;110156;1247;59691;-71
2022/07/01 06:59:28;;;;;;;6.80;5.80;;;;;;;27.90;45.32;97355.83;109898;1250;59692;-71
2022/07/01 07:01:57;;;;;;;;;;;;;;;28.11;43.96;97361.27;109952;1248;71502;-69
2022/07/01 07:04:26;;;;;;;7.20;6.50;;;;;;;28.22;43.38;97361.17;110132;1247;67885;-71
2022/07/01 07:07:16;;;;;;;6.20;5.60;;;;;;;28.37;42.82;97358.57;110000;1247;68953;-69
2022/07/01 07:09:44;;;;;;;;;;;;;;;28.88;42.89;97360.79;109967;1250;59690;-70
2022/07/01 07:12:14;;;;;;;7.50;6.80;;;;;;;29.19;41.00;97361.17;109954;1249;59733;-71
2022/07/01 07:14:43;;;;;;;6.90;6.20;;;;;;;29.43;40.57;97359.77;109852;1250;70906;-72
2022/07/01 07:17:12;;;;;;;7.80;6.90;;;;;;;29.94;41.95;97365.45;109879;1250;67796;-65
2022/07/01 07:19:42;;;;;;;7.60;6.70;;;;;;;30.36;40.12;97367.27;110151;1247;68484;-71
2022/07/01 07:22:11;;;;;;;;;;;;;;;30.60;39.68;97366.77;109991;1247;59798;-70
2022/07/01 07:24:39;;;;;;;;;;;;;;;30.88;38.94;97361.90;110132;1248;59688;-72
2022/07/01 07:27:10;;;;;;;7.30;6.50;;;;;;;31.32;38.97;97356.31;109525;1247;791417;-70
2022/07/01 07:29:39;;;;;;;6.70;6.00;;;;;;;31.67;36.69;97356.64;110169;1247;67217;-71
2022/07/01 07:32:08;;;;;;;7.40;6.10;;;;;;;31.99;36.07;97359.73;110125;1245;69478;-70
2022/07/01 07:34:37;;;;;;;7.40;6.70;;;;;;;32.00;34.94;97363.36;110039;1249;59747;-71
2022/07/01 07:37:08;;;;;;;7.90;7.10;;;;;;;31.98;35.32;97361.12;110139;1248;59709;-68
2022/07/01 07:39:37;;;;;;;8.60;6.80;;;;;;;32.09;35.74;97358.52;110174;1247;71517;-70
2022/07/01 07:42:06;;;;;;;7.40;6.70;;;;;;;32.45;35.92;97362.27;109931;1250;68638;-69
2022/07/01 07:44:35;;;;;;;7.60;6.90;;;;;;;32.59;34.22;97358.32;110149;1247;68479;-71
2022/07/01 07:47:06;;;;;;;8.40;7.60;;;;;;;32.88;34.29;97361.89;109890;1249;59750;-72
2022/07/01 07:49:35;;;;;;;7.80;7.10;;;;;;;32.91;33.14;97359.04;110143;1250;59746;-71
2022/07/01 07:52:04;;;;;;;7.20;6.60;;;;;;;33.25;33.46;97357.37;110121;1249;71334;-71
2022/07/01 07:54:34;;;;;;;7.80;7.00;;;;;;;33.41;32.95;97353.29;110176;1247;68502;-72
2022/07/01 07:57:04;;;;;;;9.10;8.20;;;;;;;33.28;32.31;97352.64;110155;1247;69477;-70
2022/07/01 07:59:34;;;;;;;8.50;7.10;;;;;;;33.23;32.56;97352.70;110196;1248;59739;-72
2022/07/01 08:02:04;;;;;;;6.90;6.20;;;;;;;32.92;33.52;97350.94;109917;1250;59606;-73
2022/07/01 08:04:33;;;;;;;8.10;7.40;;;;;;;33.18;33.38;97346.70;109933;1249;71411;-71
2022/07/01 08:07:03;;;;;;;7.70;7.00;;;;;;;32.97;32.52;97351.81;110125;1248;66763;-70
2022/07/01 08:09:34;;;;;;;8.30;7.50;;;;;;;32.44;33.60;97351.05;109919;1247;69310;-69
2022/07/01 08:12:04;;;;;;;7.20;6.60;;;;;;;32.99;33.66;97353.34;109944;1250;59696;-69
2022/07/01 08:14:33;;;;;;;7.70;6.90;;;;;;;33.51;32.60;97348.54;110023;1249;60114;-70
2022/07/01 08:17:03;;;;;;;8.00;7.20;;;;;;;33.53;31.78;97349.54;110165;1247;71004;-71
2022/07/01 08:19:32;;;;;;;8.30;7.50;;;;;;;33.00;32.01;97349.45;110170;1247;67645;-70
2022/07/01 08:22:01;;;;;;;8.40;7.60;;;;;;;33.00;32.37;97348.64;110104;1250;68543;-71
2022/07/01 08:24:30;;;;;;;8.70;8.00;;;;;;;33.14;31.94;97344.39;110165;1247;59919;-72
2022/07/01 08:27:00;;;;;;;9.30;7.90;;;;;;;33.68;31.72;97342.82;110185;1247;59672;-71
2022/07/01 08:29:30;;;;;;;8.40;7.60;;;;;;;33.73;31.55;97342.95;110214;1248;71562;-71
2022/07/01 08:31:59;;;;;;;7.30;6.70;;;;;;;34.04;31.43;97342.55;110184;1247;67829;-72
2022/07/01 08:34:28;;;;;;;7.50;6.70;;;;;;;34.58;30.42;97340.08;110131;1247;69430;-72
2022/07/01 08:36:57;;;;;;;7.60;6.90;;;;;;;34.74;30.06;97336.21;110155;1247;59701;-71
2022/07/01 08:39:29;;;;;;;8.20;7.40;;;;;;;34.81;29.69;97335.09;110183;1247;59757;-70
2022/07/01 08:41:58;;;;;;;8.10;7.40;;;;;;;35.04;29.41;97332.64;110187;1247;71627;-71
2022/07/01 08:44:27;;;;;;;7.80;7.10;;;;;;;35.34;29.42;97323.85;110226;1247;68539;-73
2022/07/01 08:46:59;;;;;;;8.70;7.90;;;;;;;35.71;28.74;97325.30;110134;1247;69424;-71
2022/07/01 08:49:28;;;;;;;10.40;8.70;;;;;;;35.93;28.20;97326.16;110147;1247;59765;-71
2022/07/01 08:51:58;;;;;;;8.50;7.70;;;;;;;35.71;28.73;97327.34;110157;1247;59650;-67
2022/07/01 08:54:27;;;;;;;8.30;7.60;;;;;;;35.76;28.48;97325.55;109857;1250;71514;-70
2022/07/01 08:56:56;;;;;;;9.20;8.30;;;;;;;35.10;29.13;97327.73;110157;1247;67468;-68
2022/07/01 08:59:26;;;;;;;9.20;8.40;;;;;;;34.44;29.78;97328.79;110163;1247;68658;-70
2022/07/01 09:02:05;;;;;;;9.00;8.30;;;;;;;34.00;30.48;97328.20;110157;1247;59747;-70
2022/07/01 09:04:34;;;;;;;12.90;11.70;;;;;;;33.91;30.45;97327.73;110192;1247;59749;-70
2022/07/01 09:07:09;;;;;;;9.80;8.90;;;;;;;34.37;30.61;97326.38;110176;1247;71555;-72
2022/07/01 09:09:41;;;;;;;8.10;7.30;;;;;;;35.02;30.36;97327.42;109962;1248;67958;-70
2022/07/01 09:12:12;;;;;;;7.20;6.60;;;;;;;35.38;28.96;97326.40;110146;1247;68731;-69
2022/07/01 09:14:42;;;;;;;7.60;6.90;;;;;;;35.23;28.40;97325.63;109989;1249;59695;-71
2022/07/01 09:17:20;;;;;;;8.00;7.20;;;;;;;35.34;28.20;97322.48;109922;1250;59754;-71
2022/07/01 09:19:50;;;;;;;8.10;7.00;;;;;;;35.88;28.32;97322.92;110035;1250;70581;-71
2022/07/01 09:22:19;;;;;;;7.70;6.90;;;;;;;36.16;27.72;97322.02;110156;1247;67633;-71
2022/07/01 09:24:51;;;;;;;7.80;7.10;;;;;;;36.32;27.03;97317.11;110137;1247;69548;-72
2022/07/01 09:27:25;;;;;;;6.70;6.10;;;;;;;36.47;26.79;97315.63;110185;1247;59691;-70
2022/07/01 09:29:55;;;;;;;6.80;6.30;;;;;;;36.56;26.90;97313.14;110133;1247;59667;-71
2022/07/01 09:32:24;;;;;;;7.30;6.70;;;;;;;36.98;25.66;97313.98;110147;1250;70535;-70
2022/07/01 09:34:54;;;;;;;6.60;6.10;;;;;;;37.05;25.78;97306.73;110151;1247;67781;-71
2022/07/01 09:37:26;;;;;;;8.20;6.80;;;;;;;37.51;25.81;97301.16;109796;1250;67586;-70
2022/07/01 09:39:57;;;;;;;7.00;6.40;;;;;;;37.49;24.30;97295.14;109850;1247;59735;-71
2022/07/01 09:42:27;;;;;;;7.60;6.90;;;;;;;36.81;25.23;97293.20;109970;1248;59747;-69
2022/07/01 09:45:06;;;;;;;8.70;6.80;;;;;;;36.54;25.52;97295.08;109991;1248;70403;-72
2022/07/01 09:47:39;;;;;;;8.30;7.60;;;;;;;37.20;25.69;97290.97;110242;1247;68488;-70
2022/07/01 09:50:09;;;;;;;7.80;7.10;;;;;;;37.24;25.41;97291.54;109960;1250;67468;-69
2022/07/01 09:52:38;;;;;;;8.20;7.50;;;;;;;36.50;25.58;97291.19;110121;1248;60153;-72
2022/07/01 09:55:08;;;;;;;7.00;6.40;;;;;;;36.70;26.10;97292.53;109985;1247;59688;-70
2022/07/01 09:57:37;;;;;;;8.60;7.90;;;;;;;36.85;26.01;97285.73;110222;1247;71377;-73
2022/07/01 10:00:07;;;;;;;8.00;7.30;;;;;;;37.09;25.77;97282.62;110003;1250;67822;-71
2022/07/01 10:02:38;;;;;;;8.00;7.20;;;;;;;37.20;25.09;97275.66;110195;1247;69745;-71
2022/07/01 10:05:20;;;;;;;7.50;6.80;;;;;;;37.11;24.73;97270.23;110037;1247;59741;-70
2022/07/01 10:07:58;;;;;;;8.20;7.40;;;;;;;37.15;25.16;97268.35;110233;1247;59731;-71
2022/07/01 10:11:16;;;;;;;7.10;6.50;;;;;;;36.91;25.01;97264.73;110178;1247;71599;-69
2022/07/01 10:13:46;;;;;;;7.90;7.20;;;;;;;36.79;25.26;97263.93;110184;1247;67819;-70
2022/07/01 10:16:21;;;;;;;7.40;6.60;;;;;;;36.08;25.56;97259.80;109900;1247;68603;-69
2022/07/01 10:18:50;;;;;;;8.00;7.30;;;;;;;35.47;26.49;97260.52;110152;1247;59767;-70
2022/07/01 10:21:30;;;;;;;8.10;7.30;;;;;;;35.24;26.57;97256.27;110205;1249;59685;-69
2022/07/01 10:24:13;;;;;;;8.00;7.30;;;;;;;35.14;26.85;97255.95;109936;1249;69912;-70
2022/07/01 10:26:44;;;;;;;7.40;6.70;;;;;;;35.57;27.00;97253.77;110177;1249;68602;-69
2022/07/01 10:29:32;;;;;;;7.20;6.60;;;;;;;35.85;25.92;97250.63;110182;1247;69492;-69
2022/07/01 10:32:21;;;;;;;8.10;7.30;;;;;;;35.81;25.84;97249.19;109810;1247;59747;-69
2022/07/01 10:35:10;;;;;;;7.70;6.90;;;;;;;35.61;26.59;97247.67;110195;1245;59605;-69
2022/07/01 10:37:58;;;;;;;7.90;7.20;;;;;;;35.90;26.04;97237.90;110182;1247;70728;-69
2022/07/01 10:40:46;;;;;;;7.10;6.40;;;;;;;36.04;25.91;97229.80;110147;1250;67845;-68
2022/07/01 10:43:17;;;;;;;8.00;7.30;;;;;;;36.17;25.60;97227.18;110266;1249;67782;-72
2022/07/01 10:45:59;;;;;;;7.60;7.00;;;;;;;36.03;25.65;97222.73;110138;1247;59670;-71
2022/07/01 10:48:32;;;;;;;7.40;6.70;;;;;;;35.82;25.92;97221.34;109933;1250;59753;-69
2022/07/01 10:51:02;;;;;;;7.90;7.20;;;;;;;35.69;26.75;97215.09;110025;1250;70750;-67
2022/07/01 10:54:00;;;;;;;7.80;6.90;;;;;;;35.17;26.25;97216.60;110013;1248;67634;-69
2022/07/01 10:56:39;;;;;;;;;;;;;;;35.40;26.17;97212.21;110038;1249;68501;-68
2022/07/01 10:59:18;;;;;;;8.00;7.30;;;;;;;35.80;26.10;97206.27;110142;1247;59708;-68
2022/07/01 11:01:47;;;;;;;7.20;6.50;;;;;;;35.78;25.99;97201.45;110233;1246;59674;-68
2022/07/01 11:04:17;;;;;;;8.40;6.70;;;;;;;35.98;25.79;97198.92;110032;1247;71547;-68
2022/07/01 11:06:47;;;;;;;7.40;6.60;;;;;;;36.10;25.45;97190.61;110045;1248;68433;-70
2022/07/01 11:09:18;;;;;;;7.80;7.00;;;;;;;36.18;25.05;97182.94;110024;1247;68468;-70
2022/07/01 11:11:47;;;;;;;7.50;6.80;;;;;;;36.34;25.21;97179.47;110103;1249;59708;-71
2022/07/01 11:14:17;;;;;;;8.40;7.60;;;;;;;36.24;25.48;97180.51;110158;1247;59693;-70
2022/07/01 11:16:51;;;;;;;7.80;7.10;;;;;;;35.55;26.26;97175.27;110142;1247;70861;-70
2022/07/01 11:19:20;;;;;;;7.10;6.50;;;;;;;35.18;26.73;97172.77;109945;1249;68457;-70
2022/07/01 11:21:51;;;;;;;8.60;7.80;;;;;;;35.26;26.69;97169.42;110130;1247;69422;-70
2022/07/01 11:24:22;;;;;;;8.70;7.90;;;;;;;35.07;26.63;97167.35;109965;1247;59788;-71
2022/07/01 11:27:00;;;;;;;6.70;6.10;;;;;;;34.67;27.16;97167.75;110247;1247;59752;-69
2022/07/01 11:29:29;;;;;;;6.60;5.90;;;;;;;34.65;27.26;97172.48;109962;1248;71621;-70
2022/07/01 11:31:58;;;;;;;7.50;6.30;;;;;;;34.81;28.19;97174.65;110135;1247;67853;-69
2022/07/01 11:34:30;;;;;;;7.40;6.70;;;;;;;34.96;27.47;97174.20;110203;1247;69219;-70
2022/07/01 11:40:08;;;;;;;6.60;5.90;;;;;;;36.03;25.22;97175.83;110149;1247;59671;-69
2022/07/01 11:42:39;;;;;;;7.10;6.10;;;;;;;36.39;23.98;97176.11;110277;1247;71503;-67
2022/07/01 11:45:26;;;;;;;7.10;6.40;;;;;;;36.72;24.35;97177.67;110242;1247;67943;-69
2022/07/01 11:47:56;;;;;;;7.20;6.50;;;;;;;37.03;23.99;97180.02;110215;1247;69490;-69
2022/07/01 11:50:32;;;;;;;6.70;6.10;;;;;;;37.35;23.20;97180.30;110001;1247;59757;-66
2022/07/01 11:53:08;;;;;;;5.60;5.10;;;;;;;37.74;22.80;97173.59;110011;1247;59669;-68
2022/07/01 11:55:45;;;;;;;5.80;5.30;;;;;;;38.11;21.36;97167.66;110276;1247;71479;-68
2022/07/01 11:58:17;;;;;;;6.00;5.40;;;;;;;38.18;21.87;97164.39;110011;1248;68439;-70
2022/07/01 12:00:46;;;;;;;6.30;5.70;;;;;;;38.49;21.32;97155.65;110013;1247;69444;-69
2022/07/01 12:03:30;;;;;;;6.80;6.10;;;;;;;38.69;20.73;97156.45;110229;1247;59695;-70